Nimbus Weather Services

Informe meteorológico para Carrasco, Uruguay. El informe se hizo hace 6 minutos, a las 11:00 UTC. El viento soplaba a una velocidad de 3.1 m/s (6.9 millas por hora) del norte (010°). La temperatura era 14 °C (57 °F), con un punto de rocío de 9 °C (48 °F). La presión atmosférica era 1018 hPa (30.06 inHg). Había una humedad relativa del 71.8%. Cielo: sin nubes por debajo de 1500 metros (5000 pies) y sin presencia de cumulusnimbos. En aquel momento la visibilidad global era mayor de 10 kilómetros (6.2 millas).

La clave METAR es: SUMU 241100Z 01006KT CAVOK 14/09 Q1018 NOSIG

Consulta realizada el Martes 24 de Octubre de 2017 8:05. Tiempo usado para generar esta pagina:1,475 ms.